Time;durP1;ratioP1;P1;durP2;ratioP2;P2;SDS_P1;SDS_P2;PMS_P1;PMS_P2;Temp;Humidity;BMP_temperature;BMP_pressure;BME280_temperature;BME280_humidity;BME280_pressure;Samples;Min_cycle;Max_cycle;Signal;HPM_P1;HPM_P2
2023/03/19 00:09:41;;;;;;;1999.90;999.90;;;12.90;99.90;;;;;;6740061;88;20263;-77
2023/03/19 00:19:41;;;;;;;1999.90;999.90;;;13.10;99.90;;;;;;6743457;88;20274;-76
2023/03/19 00:29:42;;;;;;;1999.90;999.90;;;13.00;99.90;;;;;;6740644;87;20330;-76
2023/03/19 00:39:42;;;;;;;1999.90;999.90;;;12.80;99.90;;;;;;6744491;88;20200;-76
2023/03/19 00:49:43;;;;;;;1999.90;999.90;;;12.90;99.90;;;;;;6740237;87;20207;-76
2023/03/19 00:59:43;;;;;;;1999.90;999.90;;;12.80;99.90;;;;;;6745342;88;20206;-77
2023/03/19 01:09:44;;;;;;;1999.90;999.90;;;12.50;99.90;;;;;;6741185;88;20251;-76
2023/03/19 01:19:44;;;;;;;1999.90;999.90;;;12.50;99.90;;;;;;6741801;88;20209;-76
2023/03/19 01:29:45;;;;;;;1999.90;999.90;;;12.40;99.90;;;;;;6747138;88;20254;-77
2023/03/19 01:39:46;;;;;;;1999.90;999.90;;;12.00;99.90;;;;;;6755771;88;20680;-76
2023/03/19 01:49:52;;;;;;;1999.90;999.90;;;11.90;99.90;;;;;;6746491;88;20194;-76
2023/03/19 01:59:58;;;;;;;1999.90;999.90;;;11.90;99.90;;;;;;6743377;88;20212;-76
2023/03/19 02:10:00;;;;;;;1999.90;999.90;;;11.80;99.90;;;;;;6743502;87;20205;-76
2023/03/19 02:20:16;;;;;;;1999.90;999.90;;;11.80;99.90;;;;;;6745608;87;20223;-76
2023/03/19 02:30:26;;;;;;;1999.90;999.90;;;11.70;99.90;;;;;;6748392;87;20218;-76
2023/03/19 02:40:33;;;;;;;1999.90;999.90;;;11.60;99.90;;;;;;6744810;88;20214;-76
2023/03/19 02:50:33;;;;;;;1999.90;999.90;;;11.80;99.90;;;;;;6742803;88;20269;-76
2023/03/19 03:00:34;;;;;;;1999.90;999.90;;;11.90;99.90;;;;;;6743261;88;20640;-76
2023/03/19 03:10:34;;;;;;;1999.90;999.90;;;11.90;99.90;;;;;;6745912;87;20209;-76
2023/03/19 03:20:35;;;;;;;1999.90;999.90;;;11.90;99.90;;;;;;6743589;88;20927;-76
2023/03/19 03:30:35;;;;;;;1999.90;999.90;;;12.00;99.90;;;;;;6741849;88;20328;-76
2023/03/19 03:40:56;;;;;;;1999.90;999.90;;;12.20;99.90;;;;;;6766297;76;20166;-79
2023/03/19 03:50:57;;;;;;;1999.90;999.90;;;12.10;99.90;;;;;;6730914;88;20251;-80
2023/03/19 04:00:58;;;;;;;1999.90;999.90;;;12.10;99.90;;;;;;6741815;88;20194;-80
2023/03/19 04:10:58;;;;;;;1999.90;999.90;;;12.00;99.90;;;;;;6739368;88;20167;-79
2023/03/19 04:20:59;;;;;;;1999.90;999.90;;;11.90;99.90;;;;;;6733895;88;20255;-80
2023/03/19 04:31:05;;;;;;;1999.90;999.90;;;11.90;99.90;;;;;;6740833;88;20234;-79
2023/03/19 04:41:05;;;;;;;;;;;11.90;99.90;;;;;;6732293;88;20720;-80
2023/03/19 04:51:08;;;;;;;1999.90;999.90;;;11.80;99.90;;;;;;6747899;87;20045;-78
2023/03/19 05:01:08;;;;;;;1999.90;999.90;;;11.80;99.90;;;;;;6752866;88;20197;-79
2023/03/19 05:11:09;;;;;;;1999.90;999.90;;;11.70;99.90;;;;;;6753271;88;20204;-78
2023/03/19 05:21:11;;;;;;;1999.90;999.90;;;11.60;99.90;;;;;;6758925;88;20240;-80
2023/03/19 05:31:11;;;;;;;1999.90;999.90;;;11.40;99.90;;;;;;6760110;88;20734;-79
2023/03/19 05:41:12;;;;;;;1999.90;999.90;;;11.40;99.90;;;;;;6753719;88;20190;-80
2023/03/19 05:51:12;;;;;;;1999.90;999.90;;;11.30;99.90;;;;;;6752127;88;20181;-80
2023/03/19 06:01:13;;;;;;;1999.90;999.90;;;11.40;99.90;;;;;;6750917;88;20192;-79
2023/03/19 06:11:13;;;;;;;1999.90;999.90;;;11.60;99.90;;;;;;6743651;88;20461;-78
2023/03/19 06:21:15;;;;;;;1999.90;999.90;;;11.60;99.90;;;;;;6738676;88;20670;-78
2023/03/19 06:31:15;;;;;;;1999.90;999.90;;;11.70;99.90;;;;;;6748396;88;20223;-78
2023/03/19 06:41:16;;;;;;;1999.90;999.90;;;11.70;99.90;;;;;;6746196;88;20209;-78
2023/03/19 06:51:17;;;;;;;1999.90;999.90;;;11.70;99.90;;;;;;6743390;88;20247;-79
2023/03/19 07:01:18;;;;;;;1999.90;999.90;;;11.80;99.90;;;;;;6744467;88;20179;-78
2023/03/19 07:11:18;;;;;;;1999.90;999.90;;;12.10;99.90;;;;;;6740889;88;20218;-78
2023/03/19 07:21:19;;;;;;;1999.90;999.90;;;12.30;99.90;;;;;;6742702;88;20212;-81
2023/03/19 07:31:20;;;;;;;1999.90;999.90;;;12.20;99.90;;;;;;6738754;88;20262;-78
2023/03/19 07:41:20;;;;;;;1999.90;999.90;;;12.50;99.90;;;;;;6733141;88;20224;-81
2023/03/19 07:51:21;;;;;;;1999.90;999.90;;;12.60;99.90;;;;;;6740013;88;20234;-81
2023/03/19 08:01:21;;;;;;;1999.90;999.90;;;12.70;99.90;;;;;;6740464;88;20203;-79
2023/03/19 08:11:22;;;;;;;1999.90;999.90;;;12.70;99.90;;;;;;6742778;88;20194;-80
2023/03/19 08:21:23;;;;;;;1999.90;999.90;;;12.60;99.90;;;;;;6745545;88;20170;-79
2023/03/19 08:31:23;;;;;;;1999.90;999.90;;;12.70;99.90;;;;;;6735028;88;20174;-80
2023/03/19 08:41:24;;;;;;;1999.90;999.90;;;12.80;99.90;;;;;;6729372;88;20494;-80
2023/03/19 08:51:27;;;;;;;1999.90;999.90;;;12.70;99.90;;;;;;6733441;88;20715;-79
2023/03/19 09:01:27;;;;;;;1999.90;999.90;;;12.50;99.90;;;;;;6731861;88;20293;-78
2023/03/19 09:11:28;;;;;;;1999.90;999.90;;;12.40;99.90;;;;;;6731845;87;20216;-81
2023/03/19 09:21:29;;;;;;;1999.90;999.90;;;12.40;99.90;;;;;;6728524;88;20237;-80
2023/03/19 09:31:30;;;;;;;1999.90;999.90;;;12.50;99.90;;;;;;6732722;88;20284;-80
2023/03/19 09:41:30;;;;;;;1999.90;999.90;;;12.30;99.90;;;;;;6685817;78;20274;-76
2023/03/19 09:51:40;;;;;;;1999.90;999.90;;;12.00;99.90;;;;;;6677532;88;21425;-76
2023/03/19 10:01:48;;;;;;;1999.90;999.90;;;11.80;99.90;;;;;;6678645;88;20253;-76
2023/03/19 10:12:00;;;;;;;1999.90;999.90;;;11.90;99.90;;;;;;6676813;88;20756;-77
2023/03/19 10:22:06;;;;;;;1999.90;999.90;;;12.30;99.90;;;;;;6677815;88;20288;-77
2023/03/19 10:32:40;;;;;;;1999.90;999.90;;;12.50;99.90;;;;;;6678458;88;20737;-76
2023/03/19 10:43:14;;;;;;;1999.90;999.90;;;12.60;99.90;;;;;;6680013;88;20328;-75
2023/03/19 10:53:15;;;;;;;1999.90;999.90;;;13.00;99.90;;;;;;6676500;88;20815;-77
2023/03/19 11:03:36;;;;;;;1999.90;999.90;;;13.50;99.90;;;;;;6680994;88;20257;-74
2023/03/19 11:13:37;;;;;;;1999.90;999.90;;;13.40;99.90;;;;;;6684008;88;20191;-74
2023/03/19 11:23:41;;;;;;;1999.90;999.90;;;13.20;99.90;;;;;;6682499;88;20201;-77
2023/03/19 11:33:50;;;;;;;1999.90;999.90;;;13.50;99.90;;;;;;6683936;88;20716;-75
2023/03/19 11:44:21;;;;;;;1999.90;999.90;;;13.50;99.90;;;;;;6665881;88;20319;-75
2023/03/19 11:54:25;;;;;;;1999.90;999.90;;;13.50;99.90;;;;;;6660333;88;20269;-75
2023/03/19 12:04:54;;;;;;;1999.90;999.90;;;14.90;99.90;;;;;;6671806;89;20701;-75
2023/03/19 12:15:02;;;;;;;1999.90;999.90;;;15.30;99.90;;;;;;6672903;89;20204;-76
2023/03/19 12:25:23;;;;;;;1999.90;999.90;;;15.20;99.90;;;;;;6668466;89;20244;-77
2023/03/19 12:35:39;;;;;;;1999.90;999.90;;;14.70;99.90;;;;;;6671695;88;20201;-74
2023/03/19 12:45:45;;;;;;;1999.90;999.90;;;14.40;99.90;;;;;;6669520;89;20214;-75
2023/03/19 12:55:52;;;;;;;1999.90;999.90;;;14.50;99.90;;;;;;6666236;89;20676;-74
2023/03/19 13:06:22;;;;;;;1999.90;999.90;;;14.30;99.90;;;;;;6668534;89;20579;-74
2023/03/19 13:16:47;;;;;;;1999.90;999.90;;;14.60;99.90;;;;;;6665088;89;20180;-74
2023/03/19 13:26:49;;;;;;;1999.90;999.90;;;14.70;99.90;;;;;;6668723;88;20242;-73
2023/03/19 13:36:59;;;;;;;1999.90;999.90;;;14.20;99.90;;;;;;6666846;88;20302;-75
2023/03/19 13:47:27;;;;;;;1999.90;999.90;;;14.10;99.90;;;;;;6670077;88;20661;-74
2023/03/19 13:57:34;;;;;;;1999.90;999.90;;;14.10;99.90;;;;;;6664148;89;20209;-74
2023/03/19 14:07:40;;;;;;;1999.90;999.90;;;14.40;99.90;;;;;;6668994;88;20232;-75
2023/03/19 14:17:52;;;;;;;1999.90;999.90;;;14.20;99.90;;;;;;6666629;89;20232;-75
2023/03/19 14:27:58;;;;;;;1999.90;999.90;;;15.30;99.90;;;;;;6668371;89;20223;-75
2023/03/19 14:38:00;;;;;;;1999.90;999.90;;;16.60;99.90;;;;;;6676795;88;20250;-75
2023/03/19 14:48:06;;;;;;;1999.90;999.90;;;17.30;99.90;;;;;;6683370;88;20178;-76
2023/03/19 14:58:13;;;;;;;1999.90;999.90;;;18.40;99.90;;;;;;6681343;88;20594;-76
2023/03/19 15:08:20;;;;;;;1999.90;999.90;;;18.70;99.90;;;;;;6681192;88;20192;-75
2023/03/19 15:18:23;;;;;;;1999.90;999.90;;;18.40;99.90;;;;;;6683127;88;20607;-76
2023/03/19 15:28:33;;;;;;;1999.90;999.90;;;18.00;99.90;;;;;;6680857;88;20278;-75
2023/03/19 15:38:44;;;;;;;1999.90;999.90;;;17.20;99.90;;;;;;6703346;77;20203;-80
2023/03/19 15:49:03;;;;;;;1999.90;999.90;;;16.70;99.90;;;;;;6665524;88;20307;-80
2023/03/19 15:59:04;;;;;;;1999.90;999.90;;;16.60;99.90;;;;;;6654045;88;20263;-80
2023/03/19 16:09:11;;;;;;;1999.90;999.90;;;16.30;99.90;;;;;;6651232;89;20207;-80
2023/03/19 16:19:31;;;;;;;1999.90;999.90;;;15.60;99.90;;;;;;6655019;88;20500;-79
2023/03/19 16:29:44;;;;;;;1999.90;999.90;;;14.30;99.90;;;;;;6660784;88;20567;-80
2023/03/19 16:39:55;;;;;;;1999.90;999.90;;;13.60;99.90;;;;;;6649573;89;20199;-80
2023/03/19 16:49:55;;;;;;;1999.90;999.90;;;13.60;99.90;;;;;;6638657;89;20244;-79
2023/03/19 16:59:57;;;;;;;1999.90;999.90;;;13.20;99.90;;;;;;6655247;89;20271;-79
2023/03/19 17:09:57;;;;;;;1999.90;999.90;;;13.10;99.90;;;;;;6653786;89;21095;-79
2023/03/19 17:19:58;;;;;;;1999.90;999.90;;;12.80;99.90;;;;;;6654043;89;20188;-79
2023/03/19 17:29:58;;;;;;;1999.90;999.90;;;12.10;99.90;;;;;;6655778;89;20258;-79
2023/03/19 17:39:59;;;;;;;1999.90;999.90;;;12.20;99.90;;;;;;6658958;88;20225;-79
2023/03/19 17:50:00;;;;;;;1999.90;999.90;;;11.90;99.90;;;;;;6656381;88;20222;-79
2023/03/19 18:00:00;;;;;;;1999.90;999.90;;;11.70;99.90;;;;;;6663526;89;21088;-78
2023/03/19 18:10:01;;;;;;;1999.90;999.90;;;11.70;99.90;;;;;;6672032;89;20187;-80
2023/03/19 18:20:03;;;;;;;1999.90;999.90;;;11.70;99.90;;;;;;6674347;88;20180;-80
2023/03/19 18:30:04;;;;;;;1999.90;999.90;;;11.60;99.90;;;;;;6678238;88;20465;-79
2023/03/19 18:40:05;;;;;;;1999.90;999.90;;;11.50;99.90;;;;;;6675322;88;20161;-81
2023/03/19 18:50:16;;;;;;;1999.90;999.90;;;11.50;99.90;;;;;;6675230;88;20193;-79
2023/03/19 19:00:20;;;;;;;1999.90;999.90;;;11.40;99.90;;;;;;6677031;87;20207;-81
2023/03/19 19:10:24;;;;;;;1999.90;999.90;;;11.40;99.90;;;;;;6661703;88;20918;-81
2023/03/19 19:20:28;;;;;;;1999.90;999.90;;;11.50;99.90;;;;;;6663460;88;20272;-83
2023/03/19 19:30:29;;;;;;;1999.90;999.90;;;11.60;99.90;;;;;;6663845;88;20234;-81
2023/03/19 19:40:30;;;;;;;1999.90;999.90;;;11.60;99.90;;;;;;6664150;88;20199;-81
2023/03/19 19:50:30;;;;;;;1999.90;999.90;;;11.60;99.90;;;;;;6660894;88;20191;-83
2023/03/19 20:00:32;;;;;;;1999.90;999.90;;;11.60;99.90;;;;;;6655868;89;20776;-83
2023/03/19 20:10:32;;;;;;;1999.90;999.90;;;11.70;99.90;;;;;;6657422;88;20306;-82
2023/03/19 20:20:33;;;;;;;1999.90;999.90;;;11.40;99.90;;;;;;6653976;89;20216;-83
2023/03/19 20:30:37;;;;;;;1999.90;999.90;;;11.40;99.90;;;;;;6656591;89;20184;-81
2023/03/19 20:40:42;;;;;;;1999.90;999.90;;;11.30;99.90;;;;;;6670661;88;20318;-84
2023/03/19 20:50:43;;;;;;;1999.90;999.90;;;11.30;99.90;;;;;;6655923;89;20757;-83
2023/03/19 21:00:44;;;;;;;1999.90;999.90;;;11.30;99.90;;;;;;6656451;89;20295;-82
2023/03/19 21:10:47;;;;;;;1999.90;999.90;;;11.20;99.90;;;;;;6653296;89;20278;-80
2023/03/19 21:20:54;;;;;;;1999.90;999.90;;;11.20;99.90;;;;;;6655026;89;20212;-80
2023/03/19 21:30:56;;;;;;;1999.90;999.90;;;11.20;99.90;;;;;;6668293;89;20246;-79
2023/03/19 21:40:59;;;;;;;1999.90;999.90;;;11.20;99.90;;;;;;6664275;89;20176;-78
2023/03/19 21:51:01;;;;;;;1999.90;999.90;;;11.10;99.90;;;;;;6642217;89;20213;-79
2023/03/19 22:01:03;;;;;;;1999.90;999.90;;;11.00;99.90;;;;;;6643283;89;20647;-79
2023/03/19 22:11:12;;;;;;;1999.90;999.90;;;10.90;99.90;;;;;;6641543;89;21024;-78
2023/03/19 22:21:15;;;;;;;1999.90;999.90;;;10.70;99.90;;;;;;6640969;89;20188;-78
2023/03/19 22:31:15;;;;;;;1999.90;999.90;;;10.70;99.90;;;;;;6641993;89;20212;-80
2023/03/19 22:41:19;;;;;;;1999.90;999.90;;;10.60;99.90;;;;;;6643151;89;20179;-79
2023/03/19 22:51:22;;;;;;;1999.90;999.90;;;10.60;99.90;;;;;;6651145;89;20216;-79
2023/03/19 23:01:23;;;;;;;1999.90;999.90;;;10.30;99.90;;;;;;6658957;88;20556;-79
2023/03/19 23:11:24;;;;;;;1999.90;999.90;;;10.10;99.90;;;;;;6662794;88;20207;-79
2023/03/19 23:21:24;;;;;;;1999.90;999.90;;;10.00;99.90;;;;;;6663387;88;20197;-82
2023/03/19 23:31:25;;;;;;;1999.90;999.90;;;9.80;99.90;;;;;;6663174;88;20240;-81
2023/03/19 23:41:26;;;;;;;1999.90;999.90;;;9.70;99.90;;;;;;6663120;88;20165;-82
2023/03/19 23:51:26;;;;;;;1999.90;999.90;;;9.60;99.90;;;;;;6663051;88;20156;-82
